createdAt,value
2022-12-26T00:00:07.825Z,0
2022-12-26T00:03:08.260Z,0
2022-12-26T00:06:07.390Z,0
2022-12-26T00:09:07.419Z,0
2022-12-26T00:12:07.411Z,0
2022-12-26T00:15:07.513Z,0
2022-12-26T00:18:07.386Z,0
2022-12-26T00:21:07.404Z,0
2022-12-26T00:24:07.376Z,0
2022-12-26T00:27:07.399Z,0
2022-12-26T00:30:07.544Z,0
2022-12-26T00:33:07.468Z,0
2022-12-26T00:36:07.341Z,0
2022-12-26T00:39:07.442Z,0
2022-12-26T00:42:07.417Z,0
2022-12-26T00:45:07.356Z,0
2022-12-26T00:48:07.363Z,0
2022-12-26T00:51:07.420Z,0
2022-12-26T00:54:07.420Z,0
2022-12-26T00:57:07.445Z,0
2022-12-26T01:00:07.468Z,0
2022-12-26T01:03:08.181Z,0
2022-12-26T01:06:07.408Z,0
2022-12-26T01:09:07.425Z,0
2022-12-26T01:12:07.375Z,0
2022-12-26T01:15:07.449Z,0
2022-12-26T01:18:07.458Z,0
2022-12-26T01:21:07.379Z,0
2022-12-26T01:24:07.579Z,0
2022-12-26T01:27:07.432Z,0
2022-12-26T01:30:07.434Z,0
2022-12-26T01:33:07.374Z,0
2022-12-26T01:36:07.499Z,0
2022-12-26T01:39:07.396Z,0
2022-12-26T01:42:07.354Z,0
2022-12-26T01:45:07.420Z,0
2022-12-26T01:48:07.388Z,0
2022-12-26T01:51:07.418Z,0
2022-12-26T01:54:49.589Z,0
2022-12-26T01:57:07.427Z,0
2022-12-26T02:00:07.577Z,0
2022-12-26T02:03:07.758Z,0
2022-12-26T02:06:07.434Z,0
2022-12-26T02:09:07.493Z,0
2022-12-26T02:12:45.308Z,0
2022-12-26T02:15:07.405Z,0
2022-12-26T02:18:07.472Z,0
2022-12-26T02:21:07.380Z,0
2022-12-26T02:24:07.458Z,0
2022-12-26T02:27:07.374Z,0
2022-12-26T02:30:07.425Z,0
2022-12-26T02:33:07.370Z,0
2022-12-26T02:36:07.383Z,0
2022-12-26T02:39:49.013Z,0
2022-12-26T02:42:07.631Z,0
2022-12-26T02:45:07.467Z,0
2022-12-26T02:48:07.412Z,0
2022-12-26T02:51:07.402Z,0
2022-12-26T02:54:07.389Z,0
2022-12-26T02:57:07.540Z,0
2022-12-26T03:00:07.471Z,0
2022-12-26T03:03:07.849Z,0
2022-12-26T03:06:07.423Z,0
2022-12-26T03:09:07.392Z,0
2022-12-26T03:12:07.447Z,0
2022-12-26T03:15:07.595Z,0
2022-12-26T03:18:07.861Z,0
2022-12-26T03:21:07.490Z,0
2022-12-26T03:24:07.426Z,0
2022-12-26T03:27:07.495Z,0
2022-12-26T03:30:07.440Z,0
2022-12-26T03:33:07.405Z,0
2022-12-26T03:36:07.424Z,0
2022-12-26T03:39:07.396Z,0
2022-12-26T03:42:07.450Z,0
2022-12-26T03:45:07.473Z,0
2022-12-26T03:48:07.415Z,0
2022-12-26T03:51:07.407Z,0
2022-12-26T03:54:07.467Z,0
2022-12-26T03:57:07.403Z,0
2022-12-26T04:00:07.819Z,0
2022-12-26T04:03:07.421Z,0
2022-12-26T04:06:07.415Z,0
2022-12-26T04:09:07.371Z,0
2022-12-26T04:12:07.396Z,0
2022-12-26T04:15:07.397Z,0
2022-12-26T04:18:07.417Z,0
2022-12-26T04:21:07.389Z,0
2022-12-26T04:24:07.421Z,0
2022-12-26T04:27:07.428Z,0
2022-12-26T04:30:07.418Z,0
2022-12-26T04:33:07.455Z,0
2022-12-26T04:36:07.476Z,0
2022-12-26T04:39:07.352Z,0
2022-12-26T04:42:07.451Z,0
2022-12-26T04:45:07.355Z,0
2022-12-26T04:48:07.467Z,0
2022-12-26T04:51:07.357Z,0
2022-12-26T04:54:07.466Z,0
2022-12-26T04:57:07.453Z,0
2022-12-26T05:00:07.499Z,0
2022-12-26T05:03:07.833Z,0
2022-12-26T05:06:07.429Z,0
2022-12-26T05:09:07.398Z,0
2022-12-26T05:12:07.415Z,0
2022-12-26T05:15:07.476Z,0
2022-12-26T05:18:07.356Z,0
2022-12-26T05:21:07.441Z,0
2022-12-26T05:24:07.488Z,0
2022-12-26T05:27:07.816Z,0
2022-12-26T05:30:07.459Z,0
2022-12-26T05:33:07.424Z,0
2022-12-26T05:36:07.341Z,0
2022-12-26T05:39:07.466Z,0
2022-12-26T05:42:07.473Z,0
2022-12-26T05:45:07.395Z,0
2022-12-26T05:48:07.409Z,0
2022-12-26T05:51:07.411Z,0
2022-12-26T05:54:07.529Z,0
2022-12-26T05:57:07.372Z,0
2022-12-26T06:00:07.511Z,0
2022-12-26T06:03:08.161Z,0
2022-12-26T06:06:07.462Z,0
2022-12-26T06:09:07.953Z,0
2022-12-26T06:12:07.376Z,0
2022-12-26T06:15:07.445Z,0
2022-12-26T06:18:07.383Z,0
2022-12-26T06:21:07.368Z,0
2022-12-26T06:24:07.487Z,0
2022-12-26T06:27:07.352Z,0
2022-12-26T06:30:07.423Z,0
2022-12-26T06:33:07.421Z,0
2022-12-26T06:36:07.415Z,0
2022-12-26T06:39:07.474Z,0
2022-12-26T06:42:07.475Z,0
2022-12-26T06:45:07.361Z,0
2022-12-26T06:48:07.405Z,0
2022-12-26T06:51:07.392Z,0
2022-12-26T06:54:07.356Z,0
2022-12-26T06:57:07.335Z,3
2022-12-26T07:00:07.779Z,3
2022-12-26T07:03:07.709Z,7
2022-12-26T07:06:07.447Z,7
2022-12-26T07:09:07.448Z,13
2022-12-26T07:12:07.406Z,13
2022-12-26T07:15:09.011Z,27
2022-12-26T07:18:07.373Z,37
2022-12-26T07:21:07.398Z,53
2022-12-26T07:24:07.348Z,63
2022-12-26T07:27:07.375Z,93
2022-12-26T07:30:07.473Z,90
2022-12-26T07:33:07.470Z,133
2022-12-26T07:36:07.546Z,167
2022-12-26T07:39:07.463Z,237
2022-12-26T07:42:07.500Z,277
2022-12-26T07:45:07.536Z,360
2022-12-26T07:48:07.519Z,393
2022-12-26T07:51:07.436Z,363
2022-12-26T07:54:17.082Z,303
2022-12-26T07:57:55.371Z,637
2022-12-26T08:00:07.739Z,613
2022-12-26T08:03:16.217Z,647
2022-12-26T08:06:07.592Z,877
2022-12-26T08:09:07.455Z,997
2022-12-26T08:12:07.460Z,997
2022-12-26T08:15:07.477Z,1057
2022-12-26T08:18:07.608Z,1060
2022-12-26T08:21:07.681Z,1073
2022-12-26T08:24:07.474Z,1193
2022-12-26T08:27:07.532Z,1337
2022-12-26T08:30:07.630Z,1400
2022-12-26T08:33:07.464Z,1490
2022-12-26T08:36:07.555Z,1603
2022-12-26T08:39:07.725Z,1677
2022-12-26T08:42:07.478Z,1703
2022-12-26T08:45:07.605Z,1727
2022-12-26T08:48:07.609Z,2013
2022-12-26T08:51:07.571Z,2083
2022-12-26T08:54:07.480Z,1930
2022-12-26T08:57:07.737Z,1987
2022-12-26T09:00:07.578Z,1997
2022-12-26T09:03:07.790Z,1967
2022-12-26T09:06:13.785Z,1983
2022-12-26T09:09:07.475Z,2060
2022-12-26T09:12:07.433Z,2220
2022-12-26T09:15:07.467Z,2247
2022-12-26T09:18:07.716Z,2180
2022-12-26T09:21:07.468Z,2347
2022-12-26T09:24:07.640Z,2353
2022-12-26T09:27:07.481Z,2473
2022-12-26T09:30:07.663Z,2623
2022-12-26T09:33:07.539Z,2600
2022-12-26T09:36:19.227Z,2900
2022-12-26T09:39:07.492Z,3340
2022-12-26T09:42:07.459Z,3813
2022-12-26T09:45:07.485Z,3543
2022-12-26T09:48:07.409Z,3393
2022-12-26T09:51:07.462Z,3500
2022-12-26T09:54:07.816Z,3727
2022-12-26T09:57:19.278Z,4373
2022-12-26T10:00:07.558Z,4620
2022-12-26T10:03:07.414Z,4800
2022-12-26T10:06:07.466Z,4597
2022-12-26T10:09:07.549Z,5043
2022-12-26T10:12:07.570Z,5380
2022-12-26T10:15:07.462Z,4600
2022-12-26T10:18:07.689Z,4403
2022-12-26T10:21:07.463Z,4770
2022-12-26T10:24:07.454Z,4980
2022-12-26T10:27:07.603Z,5123
2022-12-26T10:30:07.525Z,5437
2022-12-26T10:33:07.460Z,6687
2022-12-26T10:36:07.440Z,5160
2022-12-26T10:39:07.699Z,4647
2022-12-26T10:42:07.388Z,4737
2022-12-26T10:45:07.706Z,5953
2022-12-26T10:48:07.399Z,7113
2022-12-26T10:51:07.443Z,8327
2022-12-26T10:54:07.561Z,8127
2022-12-26T10:57:07.799Z,7820
2022-12-26T11:00:07.814Z,8367
2022-12-26T11:03:08.322Z,7120
2022-12-26T11:06:16.487Z,7350
2022-12-26T11:09:07.846Z,6307
2022-12-26T11:12:07.557Z,6173
2022-12-26T11:15:07.764Z,6547
2022-12-26T11:18:07.801Z,7503
2022-12-26T11:21:15.251Z,7317
2022-12-26T11:24:07.383Z,6633
2022-12-26T11:27:15.054Z,6147
2022-12-26T11:30:07.807Z,15587
2022-12-26T11:33:16.932Z,10813
2022-12-26T11:36:07.738Z,13810
2022-12-26T11:39:07.692Z,13757
2022-12-26T11:42:07.885Z,12920
2022-12-26T11:45:07.710Z,17613
2022-12-26T11:48:07.625Z,10667
2022-12-26T11:51:07.530Z,12420
2022-12-26T11:54:07.724Z,12537
2022-12-26T11:57:07.857Z,4987
2022-12-26T12:00:07.491Z,4630
2022-12-26T12:03:07.895Z,3763
2022-12-26T12:06:07.588Z,3837
2022-12-26T12:09:13.032Z,3347
2022-12-26T12:12:07.829Z,4590
2022-12-26T12:15:07.426Z,4307
2022-12-26T12:18:07.447Z,3537
2022-12-26T12:21:07.781Z,4053
2022-12-26T12:24:07.593Z,2940
2022-12-26T12:27:12.299Z,2480
2022-12-26T12:30:07.495Z,2773
2022-12-26T12:33:07.874Z,1910
2022-12-26T12:36:07.963Z,1973
2022-12-26T12:39:07.875Z,1523
2022-12-26T12:42:07.858Z,4290
2022-12-26T12:45:07.907Z,3900
2022-12-26T12:48:07.643Z,4473
2022-12-26T12:51:07.824Z,6253
2022-12-26T12:54:07.438Z,6550
2022-12-26T12:57:07.480Z,3713
2022-12-26T13:00:07.532Z,3263
2022-12-26T13:03:08.167Z,3073
2022-12-26T13:06:07.425Z,2730
2022-12-26T13:09:07.746Z,2370
2022-12-26T13:12:07.377Z,2950
2022-12-26T13:15:07.551Z,3040
2022-12-26T13:18:07.448Z,2860
2022-12-26T13:21:07.452Z,4237
2022-12-26T13:24:07.444Z,6237
2022-12-26T13:27:07.399Z,5113
2022-12-26T13:30:07.536Z,3327
2022-12-26T13:33:07.427Z,3437
2022-12-26T13:36:08.015Z,3093
2022-12-26T13:39:07.478Z,4713
2022-12-26T13:42:07.428Z,4387
2022-12-26T13:45:07.450Z,3787
2022-12-26T13:48:07.891Z,2837
2022-12-26T13:51:07.425Z,3713
2022-12-26T13:54:07.409Z,3647
2022-12-26T13:57:07.495Z,4373
2022-12-26T14:00:07.459Z,3467
2022-12-26T14:03:27.535Z,2230
2022-12-26T14:06:07.441Z,2283
2022-12-26T14:09:07.476Z,2270
2022-12-26T14:12:07.382Z,2560
2022-12-26T14:15:07.514Z,2190
2022-12-26T14:18:07.446Z,2580
2022-12-26T14:21:08.107Z,2490
2022-12-26T14:24:07.849Z,2147
2022-12-26T14:27:07.385Z,1897
2022-12-26T14:30:07.510Z,1707
2022-12-26T14:33:08.688Z,1527
2022-12-26T14:36:07.420Z,1493
2022-12-26T14:39:07.872Z,1233
2022-12-26T14:42:07.408Z,897
2022-12-26T14:45:07.446Z,717
2022-12-26T14:48:07.460Z,597
2022-12-26T14:51:07.466Z,390
2022-12-26T14:54:07.468Z,230
2022-12-26T14:57:07.417Z,113
2022-12-26T15:00:10.899Z,73
2022-12-26T15:03:07.842Z,127
2022-12-26T15:06:07.468Z,123
2022-12-26T15:09:07.477Z,87
2022-12-26T15:12:07.428Z,43
2022-12-26T15:15:07.370Z,30
2022-12-26T15:18:07.391Z,20
2022-12-26T15:21:07.395Z,17
2022-12-26T15:24:07.363Z,17
2022-12-26T15:27:07.337Z,13
2022-12-26T15:30:07.563Z,7
2022-12-26T15:33:07.396Z,7
2022-12-26T15:36:10.556Z,3
2022-12-26T15:39:07.357Z,3
2022-12-26T15:42:07.440Z,0
2022-12-26T15:45:07.440Z,0
2022-12-26T15:48:07.412Z,0
2022-12-26T15:51:07.408Z,0
2022-12-26T15:54:07.367Z,0
2022-12-26T15:57:07.407Z,0
2022-12-26T16:00:07.574Z,0
2022-12-26T16:03:07.649Z,0
2022-12-26T16:06:07.432Z,0
2022-12-26T16:09:07.388Z,0
2022-12-26T16:12:07.399Z,0
2022-12-26T16:15:07.481Z,0
2022-12-26T16:18:07.328Z,0
2022-12-26T16:21:07.507Z,0
2022-12-26T16:24:07.314Z,0
2022-12-26T16:27:07.360Z,0
2022-12-26T16:30:16.783Z,0
2022-12-26T16:33:07.414Z,0
2022-12-26T16:36:08.158Z,0
2022-12-26T16:39:07.379Z,0
2022-12-26T16:42:07.440Z,0
2022-12-26T16:45:07.409Z,0
2022-12-26T16:48:07.379Z,0
2022-12-26T16:51:08.060Z,0
2022-12-26T16:54:07.414Z,0
2022-12-26T16:57:07.405Z,0
2022-12-26T17:00:07.436Z,0
2022-12-26T17:03:08.582Z,0
2022-12-26T17:06:07.373Z,0
2022-12-26T17:09:07.414Z,0
2022-12-26T17:12:07.426Z,0
2022-12-26T17:15:07.583Z,0
2022-12-26T17:18:07.493Z,0
2022-12-26T17:21:07.381Z,0
2022-12-26T17:24:07.457Z,0
2022-12-26T17:27:07.383Z,0
2022-12-26T17:30:07.465Z,0
2022-12-26T17:33:07.479Z,0
2022-12-26T17:39:07.497Z,0
2022-12-26T17:42:07.519Z,0
2022-12-26T17:45:07.455Z,0
2022-12-26T17:48:07.418Z,0
2022-12-26T17:51:07.346Z,0
2022-12-26T17:54:07.470Z,0
2022-12-26T17:57:07.423Z,0
2022-12-26T18:00:07.463Z,0
2022-12-26T18:03:08.261Z,0
2022-12-26T18:06:07.451Z,0
2022-12-26T18:09:08.118Z,0
2022-12-26T18:12:07.422Z,0
2022-12-26T18:15:09.562Z,0
2022-12-26T18:18:07.428Z,0
2022-12-26T18:21:08.347Z,0
2022-12-26T18:24:07.467Z,0
2022-12-26T18:27:07.505Z,0
2022-12-26T18:30:07.508Z,0
2022-12-26T18:33:07.394Z,0
2022-12-26T18:36:14.595Z,0
2022-12-26T18:39:07.487Z,0
2022-12-26T18:42:07.459Z,0
2022-12-26T18:45:07.394Z,0
2022-12-26T18:48:07.438Z,0
2022-12-26T18:51:07.407Z,0
2022-12-26T18:54:07.422Z,0
2022-12-26T18:57:07.415Z,0
2022-12-26T19:00:07.437Z,0
2022-12-26T19:03:07.355Z,0
2022-12-26T19:06:07.391Z,0
2022-12-26T19:09:07.604Z,0
2022-12-26T19:12:07.355Z,0
2022-12-26T19:15:07.371Z,0
2022-12-26T19:18:07.412Z,0
2022-12-26T19:21:07.347Z,0
2022-12-26T19:24:07.422Z,0
2022-12-26T19:27:07.462Z,0
2022-12-26T19:30:07.404Z,0
2022-12-26T19:33:07.413Z,0
2022-12-26T19:36:08.373Z,0
2022-12-26T19:39:07.342Z,0
2022-12-26T19:42:07.419Z,0
2022-12-26T19:45:07.454Z,0
2022-12-26T19:48:07.446Z,0
2022-12-26T19:51:07.364Z,0
2022-12-26T19:54:07.393Z,0
2022-12-26T19:57:07.319Z,0
2022-12-26T20:00:07.418Z,0
2022-12-26T20:03:07.597Z,0
2022-12-26T20:06:07.407Z,0
2022-12-26T20:09:07.418Z,0
2022-12-26T20:12:07.453Z,0
2022-12-26T20:15:07.464Z,0
2022-12-26T20:18:10.890Z,0
2022-12-26T20:21:07.388Z,0
2022-12-26T20:24:07.401Z,0
2022-12-26T20:27:07.429Z,0
2022-12-26T20:30:07.420Z,0
2022-12-26T20:33:07.391Z,0
2022-12-26T20:36:07.431Z,0
2022-12-26T20:39:07.497Z,0
2022-12-26T20:42:07.372Z,0
2022-12-26T20:45:07.370Z,0
2022-12-26T20:48:07.334Z,0
2022-12-26T20:51:07.333Z,0
2022-12-26T20:54:08.354Z,0
2022-12-26T20:57:07.659Z,0
2022-12-26T21:00:07.498Z,0
2022-12-26T21:03:07.727Z,0
2022-12-26T21:06:08.008Z,0
2022-12-26T21:09:08.507Z,0
2022-12-26T21:12:09.416Z,0
2022-12-26T21:15:08.778Z,0
2022-12-26T21:18:07.774Z,0
2022-12-26T21:21:07.997Z,0
2022-12-26T21:25:12.752Z,0
2022-12-26T21:27:08.002Z,0
2022-12-26T21:30:08.245Z,0
2022-12-26T21:33:07.976Z,0
2022-12-26T21:39:07.882Z,0
2022-12-26T21:42:07.753Z,0
2022-12-26T21:45:08.132Z,0
2022-12-26T21:48:07.746Z,0
2022-12-26T21:51:07.747Z,0
2022-12-26T21:54:07.744Z,0
2022-12-26T21:57:07.883Z,0
2022-12-26T22:00:07.848Z,0
2022-12-26T22:03:08.257Z,0
2022-12-26T22:06:07.613Z,0
2022-12-26T22:09:07.757Z,0
2022-12-26T22:12:08.390Z,0
2022-12-26T22:15:07.744Z,0
2022-12-26T22:18:07.615Z,0
2022-12-26T22:21:07.740Z,0
2022-12-26T22:24:07.703Z,0
2022-12-26T22:27:07.691Z,0
2022-12-26T22:30:07.685Z,0
2022-12-26T22:33:07.774Z,0
2022-12-26T22:36:07.793Z,0
2022-12-26T22:39:07.753Z,0
2022-12-26T22:42:09.413Z,0
2022-12-26T22:45:07.615Z,0
2022-12-26T22:48:07.786Z,0
2022-12-26T22:51:07.606Z,0
2022-12-26T22:54:07.724Z,0
2022-12-26T22:57:07.688Z,0
2022-12-26T23:00:17.902Z,0
2022-12-26T23:03:08.179Z,0
2022-12-26T23:06:07.685Z,0
2022-12-26T23:09:07.725Z,0
2022-12-26T23:12:07.714Z,0
2022-12-26T23:15:07.658Z,0
2022-12-26T23:18:07.689Z,0
2022-12-26T23:21:07.616Z,0
2022-12-26T23:24:07.710Z,0
2022-12-26T23:27:14.559Z,0
2022-12-26T23:30:07.687Z,0
2022-12-26T23:33:07.748Z,0
2022-12-26T23:36:07.732Z,0
2022-12-26T23:39:07.620Z,0
2022-12-26T23:42:07.597Z,0
2022-12-26T23:45:07.736Z,0
2022-12-26T23:48:07.690Z,0
2022-12-26T23:51:07.708Z,0
2022-12-26T23:54:07.716Z,0
2022-12-26T23:57:07.702Z,0
